sensor_id;sensor_type;location;lat;lon;timestamp;temperature;humidity
18950;DHT22;9608;49.288;8.130;2022-09-27T00:01:16;10.60;99.90
18950;DHT22;9608;49.288;8.130;2022-09-27T00:03:43;10.70;99.90
18950;DHT22;9608;49.288;8.130;2022-09-27T00:06:13;10.60;99.90
18950;DHT22;9608;49.288;8.130;2022-09-27T00:08:41;10.60;99.90
18950;DHT22;9608;49.288;8.130;2022-09-27T00:11:14;10.60;99.90
18950;DHT22;9608;49.288;8.130;2022-09-27T00:13:43;10.60;99.90
18950;DHT22;9608;49.288;8.130;2022-09-27T00:16:10;10.60;99.90
18950;DHT22;9608;49.288;8.130;2022-09-27T00:18:37;10.60;99.90
18950;DHT22;9608;49.288;8.130;2022-09-27T00:21:05;10.60;99.90
18950;DHT22;9608;49.288;8.130;2022-09-27T00:23:32;10.60;99.90
18950;DHT22;9608;49.288;8.130;2022-09-27T00:25:59;10.60;99.90
18950;DHT22;9608;49.288;8.130;2022-09-27T00:28:28;10.70;99.90
18950;DHT22;9608;49.288;8.130;2022-09-27T00:30:55;10.60;99.90
18950;DHT22;9608;49.288;8.130;2022-09-27T00:33:22;10.50;99.90
18950;DHT22;9608;49.288;8.130;2022-09-27T00:35:49;10.60;99.90
18950;DHT22;9608;49.288;8.130;2022-09-27T00:38:16;10.60;99.90
18950;DHT22;9608;49.288;8.130;2022-09-27T00:40:43;10.60;99.90
18950;DHT22;9608;49.288;8.130;2022-09-27T00:43:15;10.60;99.90
18950;DHT22;9608;49.288;8.130;2022-09-27T00:45:48;10.60;99.90
18950;DHT22;9608;49.288;8.130;2022-09-27T00:48:18;10.50;99.90
18950;DHT22;9608;49.288;8.130;2022-09-27T00:50:48;10.50;99.90
18950;DHT22;9608;49.288;8.130;2022-09-27T00:53:20;10.60;99.90
18950;DHT22;9608;49.288;8.130;2022-09-27T00:55:52;10.60;99.90
18950;DHT22;9608;49.288;8.130;2022-09-27T00:58:23;10.60;99.90
18950;DHT22;9608;49.288;8.130;2022-09-27T01:00:56;10.70;99.90
18950;DHT22;9608;49.288;8.130;2022-09-27T01:03:29;10.80;99.90
18950;DHT22;9608;49.288;8.130;2022-09-27T01:05:59;10.80;99.90
18950;DHT22;9608;49.288;8.130;2022-09-27T01:08:26;10.80;99.90
18950;DHT22;9608;49.288;8.130;2022-09-27T01:11:01;10.80;99.90
18950;DHT22;9608;49.288;8.130;2022-09-27T01:13:38;10.70;99.90
18950;DHT22;9608;49.288;8.130;2022-09-27T01:16:12;10.60;99.90
18950;DHT22;9608;49.288;8.130;2022-09-27T01:18:50;10.70;99.90
18950;DHT22;9608;49.288;8.130;2022-09-27T01:21:40;10.60;99.90
18950;DHT22;9608;49.288;8.130;2022-09-27T01:30:24;10.50;99.90
18950;DHT22;9608;49.288;8.130;2022-09-27T01:33:01;10.60;99.90
18950;DHT22;9608;49.288;8.130;2022-09-27T01:35:35;10.60;99.90
18950;DHT22;9608;49.288;8.130;2022-09-27T01:38:13;10.50;99.90
18950;DHT22;9608;49.288;8.130;2022-09-27T01:40:48;10.50;99.90
18950;DHT22;9608;49.288;8.130;2022-09-27T01:43:21;10.50;99.90
18950;DHT22;9608;49.288;8.130;2022-09-27T01:45:52;10.50;99.90
18950;DHT22;9608;49.288;8.130;2022-09-27T01:48:22;10.50;99.90
18950;DHT22;9608;49.288;8.130;2022-09-27T01:50:52;10.50;99.90
18950;DHT22;9608;49.288;8.130;2022-09-27T01:53:23;10.50;99.90
18950;DHT22;9608;49.288;8.130;2022-09-27T01:55:52;10.50;99.90
18950;DHT22;9608;49.288;8.130;2022-09-27T01:58:23;10.60;99.90
18950;DHT22;9608;49.288;8.130;2022-09-27T02:00:54;10.60;99.90
18950;DHT22;9608;49.288;8.130;2022-09-27T02:03:23;10.60;99.90
18950;DHT22;9608;49.288;8.130;2022-09-27T02:05:54;10.60;99.90
18950;DHT22;9608;49.288;8.130;2022-09-27T02:08:28;10.60;99.90
18950;DHT22;9608;49.288;8.130;2022-09-27T02:10:57;10.70;99.90
18950;DHT22;9608;49.288;8.130;2022-09-27T02:13:33;10.70;99.90
18950;DHT22;9608;49.288;8.130;2022-09-27T02:16:09;10.70;99.90
18950;DHT22;9608;49.288;8.130;2022-09-27T02:18:52;10.70;99.90
18950;DHT22;9608;49.288;8.130;2022-09-27T02:21:27;10.70;99.90
18950;DHT22;9608;49.288;8.130;2022-09-27T02:23:59;10.80;99.90
18950;DHT22;9608;49.288;8.130;2022-09-27T02:26:32;10.80;99.90
18950;DHT22;9608;49.288;8.130;2022-09-27T02:29:03;10.80;99.90
18950;DHT22;9608;49.288;8.130;2022-09-27T02:31:32;10.80;99.90
18950;DHT22;9608;49.288;8.130;2022-09-27T02:34:02;10.80;99.90
18950;DHT22;9608;49.288;8.130;2022-09-27T02:36:30;10.90;99.90
18950;DHT22;9608;49.288;8.130;2022-09-27T02:38:57;10.90;99.90
18950;DHT22;9608;49.288;8.130;2022-09-27T02:41:25;10.90;99.90
18950;DHT22;9608;49.288;8.130;2022-09-27T02:43:53;10.90;99.90
18950;DHT22;9608;49.288;8.130;2022-09-27T02:46:47;10.90;99.90
18950;DHT22;9608;49.288;8.130;2022-09-27T02:49:28;10.90;99.90
18950;DHT22;9608;49.288;8.130;2022-09-27T02:52:05;11.00;99.90
18950;DHT22;9608;49.288;8.130;2022-09-27T02:54:43;11.00;99.90
18950;DHT22;9608;49.288;8.130;2022-09-27T02:57:20;11.10;99.90
18950;DHT22;9608;49.288;8.130;2022-09-27T02:59:55;11.00;99.90
18950;DHT22;9608;49.288;8.130;2022-09-27T03:02:32;11.00;99.90
18950;DHT22;9608;49.288;8.130;2022-09-27T03:05:02;10.90;99.90
18950;DHT22;9608;49.288;8.130;2022-09-27T03:07:31;10.80;99.90
18950;DHT22;9608;49.288;8.130;2022-09-27T03:09:57;10.80;99.90
18950;DHT22;9608;49.288;8.130;2022-09-27T03:12:24;10.90;99.90
18950;DHT22;9608;49.288;8.130;2022-09-27T03:14:52;10.80;99.90
18950;DHT22;9608;49.288;8.130;2022-09-27T03:17:19;10.90;99.90
18950;DHT22;9608;49.288;8.130;2022-09-27T03:19:47;10.90;99.90
18950;DHT22;9608;49.288;8.130;2022-09-27T03:22:14;10.80;99.90
18950;DHT22;9608;49.288;8.130;2022-09-27T03:24:41;10.70;99.90
18950;DHT22;9608;49.288;8.130;2022-09-27T03:27:08;10.60;99.90
18950;DHT22;9608;49.288;8.130;2022-09-27T03:29:35;10.60;99.90
18950;DHT22;9608;49.288;8.130;2022-09-27T03:32:03;10.50;99.90
18950;DHT22;9608;49.288;8.130;2022-09-27T03:34:29;10.40;99.90
18950;DHT22;9608;49.288;8.130;2022-09-27T03:36:58;10.50;99.90
18950;DHT22;9608;49.288;8.130;2022-09-27T03:39:24;10.50;99.90
18950;DHT22;9608;49.288;8.130;2022-09-27T03:41:51;10.40;99.90
18950;DHT22;9608;49.288;8.130;2022-09-27T03:44:19;10.40;99.90
18950;DHT22;9608;49.288;8.130;2022-09-27T03:46:45;10.40;99.90
18950;DHT22;9608;49.288;8.130;2022-09-27T03:49:12;10.40;99.90
18950;DHT22;9608;49.288;8.130;2022-09-27T03:51:39;10.50;99.90
18950;DHT22;9608;49.288;8.130;2022-09-27T03:54:08;10.60;99.90
18950;DHT22;9608;49.288;8.130;2022-09-27T03:56:35;10.70;99.90
18950;DHT22;9608;49.288;8.130;2022-09-27T03:59:02;10.70;99.90
18950;DHT22;9608;49.288;8.130;2022-09-27T04:01:29;10.60;99.90
18950;DHT22;9608;49.288;8.130;2022-09-27T04:03:56;10.60;99.90
18950;DHT22;9608;49.288;8.130;2022-09-27T04:06:23;10.70;99.90
18950;DHT22;9608;49.288;8.130;2022-09-27T04:08:50;10.60;99.90
18950;DHT22;9608;49.288;8.130;2022-09-27T04:11:19;10.50;99.90
18950;DHT22;9608;49.288;8.130;2022-09-27T04:13:47;10.60;99.90
18950;DHT22;9608;49.288;8.130;2022-09-27T04:16:14;10.60;99.90
18950;DHT22;9608;49.288;8.130;2022-09-27T04:18:41;10.70;99.90
18950;DHT22;9608;49.288;8.130;2022-09-27T04:21:08;10.70;99.90
18950;DHT22;9608;49.288;8.130;2022-09-27T04:23:34;10.70;99.90
18950;DHT22;9608;49.288;8.130;2022-09-27T04:26:01;10.70;99.90
18950;DHT22;9608;49.288;8.130;2022-09-27T04:28:30;10.60;99.90
18950;DHT22;9608;49.288;8.130;2022-09-27T04:30:56;10.50;99.90
18950;DHT22;9608;49.288;8.130;2022-09-27T04:33:23;10.50;99.90
18950;DHT22;9608;49.288;8.130;2022-09-27T04:35:50;10.50;99.90
18950;DHT22;9608;49.288;8.130;2022-09-27T04:38:35;10.30;99.90
18950;DHT22;9608;49.288;8.130;2022-09-27T04:41:02;10.30;99.90
18950;DHT22;9608;49.288;8.130;2022-09-27T04:43:30;10.30;99.90
18950;DHT22;9608;49.288;8.130;2022-09-27T04:45:57;10.20;99.90
18950;DHT22;9608;49.288;8.130;2022-09-27T04:48:24;10.20;99.90
18950;DHT22;9608;49.288;8.130;2022-09-27T04:50:55;10.20;99.90
18950;DHT22;9608;49.288;8.130;2022-09-27T04:53:23;10.20;99.90
18950;DHT22;9608;49.288;8.130;2022-09-27T04:55:51;10.20;99.90
18950;DHT22;9608;49.288;8.130;2022-09-27T04:58:19;10.20;99.90
18950;DHT22;9608;49.288;8.130;2022-09-27T05:00:47;10.20;99.90
18950;DHT22;9608;49.288;8.130;2022-09-27T05:03:14;10.10;99.90
18950;DHT22;9608;49.288;8.130;2022-09-27T05:05:41;10.00;99.90
18950;DHT22;9608;49.288;8.130;2022-09-27T05:08:08;10.10;99.90
18950;DHT22;9608;49.288;8.130;2022-09-27T05:10:35;10.00;99.90
18950;DHT22;9608;49.288;8.130;2022-09-27T05:13:02;10.10;99.90
18950;DHT22;9608;49.288;8.130;2022-09-27T05:15:29;10.00;99.90
18950;DHT22;9608;49.288;8.130;2022-09-27T05:17:57;10.10;99.90
18950;DHT22;9608;49.288;8.130;2022-09-27T05:20:27;10.20;99.90
18950;DHT22;9608;49.288;8.130;2022-09-27T05:22:53;10.20;99.90
18950;DHT22;9608;49.288;8.130;2022-09-27T05:25:20;10.20;99.90
18950;DHT22;9608;49.288;8.130;2022-09-27T05:27:48;10.20;99.90
18950;DHT22;9608;49.288;8.130;2022-09-27T05:30:15;10.20;99.90
18950;DHT22;9608;49.288;8.130;2022-09-27T05:32:42;10.30;99.90
18950;DHT22;9608;49.288;8.130;2022-09-27T05:35:12;10.20;99.90
18950;DHT22;9608;49.288;8.130;2022-09-27T05:37:39;10.20;99.90
18950;DHT22;9608;49.288;8.130;2022-09-27T05:40:06;10.20;99.90
18950;DHT22;9608;49.288;8.130;2022-09-27T05:42:33;10.30;99.90
18950;DHT22;9608;49.288;8.130;2022-09-27T05:45:04;10.40;99.90
18950;DHT22;9608;49.288;8.130;2022-09-27T05:47:31;10.40;99.90
18950;DHT22;9608;49.288;8.130;2022-09-27T05:49:58;10.40;99.90
18950;DHT22;9608;49.288;8.130;2022-09-27T05:52:26;10.30;99.90
18950;DHT22;9608;49.288;8.130;2022-09-27T05:54:54;10.30;99.90
18950;DHT22;9608;49.288;8.130;2022-09-27T05:57:22;10.30;99.90
18950;DHT22;9608;49.288;8.130;2022-09-27T05:59:49;10.40;99.90
18950;DHT22;9608;49.288;8.130;2022-09-27T06:02:16;10.40;99.90
18950;DHT22;9608;49.288;8.130;2022-09-27T06:04:44;10.30;99.90
18950;DHT22;9608;49.288;8.130;2022-09-27T06:07:11;10.30;99.90
18950;DHT22;9608;49.288;8.130;2022-09-27T06:09:39;10.30;99.90
18950;DHT22;9608;49.288;8.130;2022-09-27T06:12:06;10.40;99.90
18950;DHT22;9608;49.288;8.130;2022-09-27T06:14:35;10.50;99.90
18950;DHT22;9608;49.288;8.130;2022-09-27T06:17:02;10.60;99.90
18950;DHT22;9608;49.288;8.130;2022-09-27T06:19:29;10.60;99.90
18950;DHT22;9608;49.288;8.130;2022-09-27T06:21:56;10.70;99.90
18950;DHT22;9608;49.288;8.130;2022-09-27T06:24:23;10.80;99.90
18950;DHT22;9608;49.288;8.130;2022-09-27T06:26:52;10.80;99.90
18950;DHT22;9608;49.288;8.130;2022-09-27T06:29:19;10.60;99.90
18950;DHT22;9608;49.288;8.130;2022-09-27T06:31:46;10.50;99.90
18950;DHT22;9608;49.288;8.130;2022-09-27T06:34:13;10.60;99.90
18950;DHT22;9608;49.288;8.130;2022-09-27T06:36:41;10.50;99.90
18950;DHT22;9608;49.288;8.130;2022-09-27T06:39:08;10.40;99.90
18950;DHT22;9608;49.288;8.130;2022-09-27T06:41:35;10.50;99.90
18950;DHT22;9608;49.288;8.130;2022-09-27T06:44:28;10.50;99.90
18950;DHT22;9608;49.288;8.130;2022-09-27T06:46:55;10.50;99.90
18950;DHT22;9608;49.288;8.130;2022-09-27T06:49:23;10.60;99.90
18950;DHT22;9608;49.288;8.130;2022-09-27T06:51:52;10.60;99.90
18950;DHT22;9608;49.288;8.130;2022-09-27T06:54:19;10.60;99.90
18950;DHT22;9608;49.288;8.130;2022-09-27T06:56:46;10.50;99.90
18950;DHT22;9608;49.288;8.130;2022-09-27T06:59:13;10.70;99.90
18950;DHT22;9608;49.288;8.130;2022-09-27T07:02:16;10.60;99.90
18950;DHT22;9608;49.288;8.130;2022-09-27T07:04:56;10.60;99.90
18950;DHT22;9608;49.288;8.130;2022-09-27T07:11:06;10.70;99.90
18950;DHT22;9608;49.288;8.130;2022-09-27T07:13:34;10.80;99.90
18950;DHT22;9608;49.288;8.130;2022-09-27T07:16:09;10.90;99.90
18950;DHT22;9608;49.288;8.130;2022-09-27T07:19:16;10.90;99.90
18950;DHT22;9608;49.288;8.130;2022-09-27T07:27:15;10.80;99.90
18950;DHT22;9608;49.288;8.130;2022-09-27T07:33:20;11.00;99.90
18950;DHT22;9608;49.288;8.130;2022-09-27T07:36:11;10.90;99.90
18950;DHT22;9608;49.288;8.130;2022-09-27T07:38:40;10.80;99.90
18950;DHT22;9608;49.288;8.130;2022-09-27T07:41:21;11.00;99.90
18950;DHT22;9608;49.288;8.130;2022-09-27T07:43:48;11.10;99.90
18950;DHT22;9608;49.288;8.130;2022-09-27T07:46:15;11.10;99.90
18950;DHT22;9608;49.288;8.130;2022-09-27T07:48:42;11.10;99.90
18950;DHT22;9608;49.288;8.130;2022-09-27T07:51:15;11.20;99.90
18950;DHT22;9608;49.288;8.130;2022-09-27T07:53:44;11.20;99.90
18950;DHT22;9608;49.288;8.130;2022-09-27T07:56:12;11.20;99.90
18950;DHT22;9608;49.288;8.130;2022-09-27T07:58:42;11.30;99.90
18950;DHT22;9608;49.288;8.130;2022-09-27T08:01:11;11.30;99.90
18950;DHT22;9608;49.288;8.130;2022-09-27T08:26:48;11.50;99.90
18950;DHT22;9608;49.288;8.130;2022-09-27T08:29:20;11.60;99.90
18950;DHT22;9608;49.288;8.130;2022-09-27T08:31:51;11.80;99.90
18950;DHT22;9608;49.288;8.130;2022-09-27T08:34:19;11.90;99.90
18950;DHT22;9608;49.288;8.130;2022-09-27T08:36:47;12.10;99.90
18950;DHT22;9608;49.288;8.130;2022-09-27T08:39:15;12.20;99.90
18950;DHT22;9608;49.288;8.130;2022-09-27T08:41:51;12.10;99.90
18950;DHT22;9608;49.288;8.130;2022-09-27T08:44:28;12.40;99.90
18950;DHT22;9608;49.288;8.130;2022-09-27T08:47:05;12.70;99.90
18950;DHT22;9608;49.288;8.130;2022-09-27T08:49:45;12.80;99.90
18950;DHT22;9608;49.288;8.130;2022-09-27T08:52:18;12.90;99.90
18950;DHT22;9608;49.288;8.130;2022-09-27T08:54:50;12.90;99.90
18950;DHT22;9608;49.288;8.130;2022-09-27T08:57:29;12.90;99.90
18950;DHT22;9608;49.288;8.130;2022-09-27T09:00:02;12.80;99.90
18950;DHT22;9608;49.288;8.130;2022-09-27T09:02:31;12.40;99.90
18950;DHT22;9608;49.288;8.130;2022-09-27T09:05:01;12.10;99.90
18950;DHT22;9608;49.288;8.130;2022-09-27T09:07:50;11.90;99.90
18950;DHT22;9608;49.288;8.130;2022-09-27T09:10:33;11.80;99.90
18950;DHT22;9608;49.288;8.130;2022-09-27T09:13:39;11.60;99.90
18950;DHT22;9608;49.288;8.130;2022-09-27T09:16:16;11.30;99.90
18950;DHT22;9608;49.288;8.130;2022-09-27T09:18:59;11.10;99.90
18950;DHT22;9608;49.288;8.130;2022-09-27T09:21:34;10.90;99.90
18950;DHT22;9608;49.288;8.130;2022-09-27T09:24:17;10.60;99.90
18950;DHT22;9608;49.288;8.130;2022-09-27T09:26:52;10.60;99.90
18950;DHT22;9608;49.288;8.130;2022-09-27T09:29:43;10.60;99.90
18950;DHT22;9608;49.288;8.130;2022-09-27T09:32:26;10.70;99.90
18950;DHT22;9608;49.288;8.130;2022-09-27T09:34:58;10.70;99.90
18950;DHT22;9608;49.288;8.130;2022-09-27T09:37:33;10.60;99.90
18950;DHT22;9608;49.288;8.130;2022-09-27T09:40:05;10.60;99.90
18950;DHT22;9608;49.288;8.130;2022-09-27T09:42:43;10.60;99.90
18950;DHT22;9608;49.288;8.130;2022-09-27T09:45:17;10.50;99.90
18950;DHT22;9608;49.288;8.130;2022-09-27T09:47:48;10.40;99.90
18950;DHT22;9608;49.288;8.130;2022-09-27T09:50:19;10.40;99.90
18950;DHT22;9608;49.288;8.130;2022-09-27T09:52:53;10.50;99.90
18950;DHT22;9608;49.288;8.130;2022-09-27T09:55:23;10.50;99.90
18950;DHT22;9608;49.288;8.130;2022-09-27T09:58:00;10.60;99.90
18950;DHT22;9608;49.288;8.130;2022-09-27T10:00:29;10.60;99.90
18950;DHT22;9608;49.288;8.130;2022-09-27T10:02:58;10.50;99.90
18950;DHT22;9608;49.288;8.130;2022-09-27T10:05:26;10.40;99.90
18950;DHT22;9608;49.288;8.130;2022-09-27T10:07:57;10.30;99.90
18950;DHT22;9608;49.288;8.130;2022-09-27T10:10:24;10.20;99.90
18950;DHT22;9608;49.288;8.130;2022-09-27T10:12:52;10.30;99.90
18950;DHT22;9608;49.288;8.130;2022-09-27T10:15:21;10.30;99.90
18950;DHT22;9608;49.288;8.130;2022-09-27T10:17:51;10.50;99.90
18950;DHT22;9608;49.288;8.130;2022-09-27T10:20:29;10.60;99.90
18950;DHT22;9608;49.288;8.130;2022-09-27T10:23:03;10.70;99.90
18950;DHT22;9608;49.288;8.130;2022-09-27T10:25:49;11.00;99.90
18950;DHT22;9608;49.288;8.130;2022-09-27T10:28:30;11.20;99.90
18950;DHT22;9608;49.288;8.130;2022-09-27T10:31:00;11.40;99.90
18950;DHT22;9608;49.288;8.130;2022-09-27T10:33:30;11.80;99.90
18950;DHT22;9608;49.288;8.130;2022-09-27T10:35:58;12.20;99.90
18950;DHT22;9608;49.288;8.130;2022-09-27T10:38:28;12.50;99.90
18950;DHT22;9608;49.288;8.130;2022-09-27T10:40:57;12.90;99.90
18950;DHT22;9608;49.288;8.130;2022-09-27T10:43:27;13.30;99.90
18950;DHT22;9608;49.288;8.130;2022-09-27T10:46:14;13.40;99.90
18950;DHT22;9608;49.288;8.130;2022-09-27T10:48:43;13.60;99.90
18950;DHT22;9608;49.288;8.130;2022-09-27T10:51:24;13.90;99.90
18950;DHT22;9608;49.288;8.130;2022-09-27T10:53:51;14.20;99.90
18950;DHT22;9608;49.288;8.130;2022-09-27T10:56:26;14.10;99.90
18950;DHT22;9608;49.288;8.130;2022-09-27T10:58:54;13.90;99.90
18950;DHT22;9608;49.288;8.130;2022-09-27T11:01:24;14.00;99.90
18950;DHT22;9608;49.288;8.130;2022-09-27T11:03:54;14.10;99.90
18950;DHT22;9608;49.288;8.130;2022-09-27T11:06:28;13.70;99.90
18950;DHT22;9608;49.288;8.130;2022-09-27T11:09:11;13.40;99.90
18950;DHT22;9608;49.288;8.130;2022-09-27T11:11:40;13.10;99.90
18950;DHT22;9608;49.288;8.130;2022-09-27T11:14:17;13.20;99.90
18950;DHT22;9608;49.288;8.130;2022-09-27T11:20:02;13.10;99.90
18950;DHT22;9608;49.288;8.130;2022-09-27T11:23:01;12.80;99.90
18950;DHT22;9608;49.288;8.130;2022-09-27T11:25:35;12.80;99.90
18950;DHT22;9608;49.288;8.130;2022-09-27T11:28:12;12.80;99.90
18950;DHT22;9608;49.288;8.130;2022-09-27T11:30:49;12.90;99.90
18950;DHT22;9608;49.288;8.130;2022-09-27T11:36:27;12.90;99.90
18950;DHT22;9608;49.288;8.130;2022-09-27T11:39:02;13.00;99.90
18950;DHT22;9608;49.288;8.130;2022-09-27T11:41:43;13.10;99.90
18950;DHT22;9608;49.288;8.130;2022-09-27T11:47:16;13.20;99.90
18950;DHT22;9608;49.288;8.130;2022-09-27T11:49:59;13.30;99.90
18950;DHT22;9608;49.288;8.130;2022-09-27T11:52:44;13.40;99.90
18950;DHT22;9608;49.288;8.130;2022-09-27T11:55:20;13.50;99.90
18950;DHT22;9608;49.288;8.130;2022-09-27T11:57:57;13.70;99.90
18950;DHT22;9608;49.288;8.130;2022-09-27T12:00:36;14.10;99.90
18950;DHT22;9608;49.288;8.130;2022-09-27T12:03:40;14.10;99.90
18950;DHT22;9608;49.288;8.130;2022-09-27T12:06:14;14.50;99.90
18950;DHT22;9608;49.288;8.130;2022-09-27T12:09:00;14.90;99.90
18950;DHT22;9608;49.288;8.130;2022-09-27T12:11:33;15.10;99.90
18950;DHT22;9608;49.288;8.130;2022-09-27T12:14:03;15.10;99.90
18950;DHT22;9608;49.288;8.130;2022-09-27T12:16:32;14.80;99.90
18950;DHT22;9608;49.288;8.130;2022-09-27T12:19:01;14.70;99.90
18950;DHT22;9608;49.288;8.130;2022-09-27T12:21:30;14.60;99.90
18950;DHT22;9608;49.288;8.130;2022-09-27T12:24:00;14.30;99.90
18950;DHT22;9608;49.288;8.130;2022-09-27T12:26:30;14.40;99.90
18950;DHT22;9608;49.288;8.130;2022-09-27T12:29:05;14.30;99.90
18950;DHT22;9608;49.288;8.130;2022-09-27T12:31:41;14.20;99.90
18950;DHT22;9608;49.288;8.130;2022-09-27T12:34:14;14.60;99.90
18950;DHT22;9608;49.288;8.130;2022-09-27T12:36:45;14.60;99.90
18950;DHT22;9608;49.288;8.130;2022-09-27T12:39:18;14.60;99.90
18950;DHT22;9608;49.288;8.130;2022-09-27T12:41:51;14.70;99.90
18950;DHT22;9608;49.288;8.130;2022-09-27T12:44:21;14.50;99.90
18950;DHT22;9608;49.288;8.130;2022-09-27T12:46:56;14.00;99.90
18950;DHT22;9608;49.288;8.130;2022-09-27T12:49:33;13.50;99.90
18950;DHT22;9608;49.288;8.130;2022-09-27T12:52:07;13.40;99.90
18950;DHT22;9608;49.288;8.130;2022-09-27T12:54:53;13.30;99.90
18950;DHT22;9608;49.288;8.130;2022-09-27T12:57:32;13.40;99.90
18950;DHT22;9608;49.288;8.130;2022-09-27T13:00:09;13.50;99.90
18950;DHT22;9608;49.288;8.130;2022-09-27T13:08:39;13.60;99.90
18950;DHT22;9608;49.288;8.130;2022-09-27T13:11:15;13.60;99.90
18950;DHT22;9608;49.288;8.130;2022-09-27T13:13:44;13.30;99.90
18950;DHT22;9608;49.288;8.130;2022-09-27T13:16:11;13.20;99.90
18950;DHT22;9608;49.288;8.130;2022-09-27T13:18:53;12.90;99.90
18950;DHT22;9608;49.288;8.130;2022-09-27T13:21:55;12.80;99.90
18950;DHT22;9608;49.288;8.130;2022-09-27T13:24:44;12.60;99.90
18950;DHT22;9608;49.288;8.130;2022-09-27T13:27:43;12.40;99.90
18950;DHT22;9608;49.288;8.130;2022-09-27T13:33:27;12.70;99.90
18950;DHT22;9608;49.288;8.130;2022-09-27T13:36:15;13.00;99.90
18950;DHT22;9608;49.288;8.130;2022-09-27T13:39:00;13.20;99.90
18950;DHT22;9608;49.288;8.130;2022-09-27T13:41:38;13.40;99.90
18950;DHT22;9608;49.288;8.130;2022-09-27T13:44:12;13.20;99.90
18950;DHT22;9608;49.288;8.130;2022-09-27T13:46:46;13.20;99.90
18950;DHT22;9608;49.288;8.130;2022-09-27T13:49:18;13.10;99.90
18950;DHT22;9608;49.288;8.130;2022-09-27T13:51:50;13.00;99.90
18950;DHT22;9608;49.288;8.130;2022-09-27T13:54:37;12.90;99.90
18950;DHT22;9608;49.288;8.130;2022-09-27T13:57:15;12.70;99.90
18950;DHT22;9608;49.288;8.130;2022-09-27T13:59:56;12.50;99.90
18950;DHT22;9608;49.288;8.130;2022-09-27T14:02:28;12.40;99.90
18950;DHT22;9608;49.288;8.130;2022-09-27T14:05:00;12.40;99.90
18950;DHT22;9608;49.288;8.130;2022-09-27T14:07:33;12.40;99.90
18950;DHT22;9608;49.288;8.130;2022-09-27T14:10:03;12.60;99.90
18950;DHT22;9608;49.288;8.130;2022-09-27T14:12:33;12.60;99.90
18950;DHT22;9608;49.288;8.130;2022-09-27T14:15:03;12.60;99.90
18950;DHT22;9608;49.288;8.130;2022-09-27T14:17:33;12.50;99.90
18950;DHT22;9608;49.288;8.130;2022-09-27T14:20:00;12.50;99.90
18950;DHT22;9608;49.288;8.130;2022-09-27T14:22:28;12.60;99.90
18950;DHT22;9608;49.288;8.130;2022-09-27T14:24:56;12.40;99.90
18950;DHT22;9608;49.288;8.130;2022-09-27T14:27:24;12.30;99.90
18950;DHT22;9608;49.288;8.130;2022-09-27T14:29:52;12.30;99.90
18950;DHT22;9608;49.288;8.130;2022-09-27T14:32:24;12.30;99.90
18950;DHT22;9608;49.288;8.130;2022-09-27T14:35:06;12.40;99.90
18950;DHT22;9608;49.288;8.130;2022-09-27T14:37:54;12.30;99.90
18950;DHT22;9608;49.288;8.130;2022-09-27T14:40:21;12.20;99.90
18950;DHT22;9608;49.288;8.130;2022-09-27T14:42:51;12.20;99.90
18950;DHT22;9608;49.288;8.130;2022-09-27T14:45:20;12.00;99.90
18950;DHT22;9608;49.288;8.130;2022-09-27T14:47:50;12.10;99.90
18950;DHT22;9608;49.288;8.130;2022-09-27T14:50:20;12.30;99.90
18950;DHT22;9608;49.288;8.130;2022-09-27T14:52:47;12.40;99.90
18950;DHT22;9608;49.288;8.130;2022-09-27T14:55:18;12.50;99.90
18950;DHT22;9608;49.288;8.130;2022-09-27T14:57:46;12.40;99.90
18950;DHT22;9608;49.288;8.130;2022-09-27T15:00:17;12.30;99.90
18950;DHT22;9608;49.288;8.130;2022-09-27T15:02:45;12.20;99.90
18950;DHT22;9608;49.288;8.130;2022-09-27T15:05:17;12.20;99.90
18950;DHT22;9608;49.288;8.130;2022-09-27T15:07:45;12.10;99.90
18950;DHT22;9608;49.288;8.130;2022-09-27T15:10:14;11.70;99.90
18950;DHT22;9608;49.288;8.130;2022-09-27T15:12:43;11.40;99.90
18950;DHT22;9608;49.288;8.130;2022-09-27T15:15:13;11.10;99.90
18950;DHT22;9608;49.288;8.130;2022-09-27T15:17:42;10.90;99.90
18950;DHT22;9608;49.288;8.130;2022-09-27T15:20:21;10.70;99.90
18950;DHT22;9608;49.288;8.130;2022-09-27T15:22:49;10.70;99.90
18950;DHT22;9608;49.288;8.130;2022-09-27T15:25:20;10.70;99.90
18950;DHT22;9608;49.288;8.130;2022-09-27T15:27:50;10.70;99.90
18950;DHT22;9608;49.288;8.130;2022-09-27T15:30:20;10.90;99.90
18950;DHT22;9608;49.288;8.130;2022-09-27T15:32:49;10.90;99.90
18950;DHT22;9608;49.288;8.130;2022-09-27T15:35:22;11.10;99.90
18950;DHT22;9608;49.288;8.130;2022-09-27T15:37:50;11.20;99.90
18950;DHT22;9608;49.288;8.130;2022-09-27T15:41:05;11.30;99.90
18950;DHT22;9608;49.288;8.130;2022-09-27T15:43:35;11.30;99.90
18950;DHT22;9608;49.288;8.130;2022-09-27T15:49:25;11.30;99.90
18950;DHT22;9608;49.288;8.130;2022-09-27T15:51:56;11.30;99.90
18950;DHT22;9608;49.288;8.130;2022-09-27T15:54:25;11.20;99.90
18950;DHT22;9608;49.288;8.130;2022-09-27T15:56:55;11.20;99.90
18950;DHT22;9608;49.288;8.130;2022-09-27T15:59:25;11.20;99.90
18950;DHT22;9608;49.288;8.130;2022-09-27T16:01:54;11.10;99.90
18950;DHT22;9608;49.288;8.130;2022-09-27T16:04:21;10.90;99.90
18950;DHT22;9608;49.288;8.130;2022-09-27T16:06:48;10.90;99.90
18950;DHT22;9608;49.288;8.130;2022-09-27T16:09:18;10.70;99.90
18950;DHT22;9608;49.288;8.130;2022-09-27T16:11:45;10.70;99.90
18950;DHT22;9608;49.288;8.130;2022-09-27T16:14:12;10.50;99.90
18950;DHT22;9608;49.288;8.130;2022-09-27T16:16:42;10.40;99.90
18950;DHT22;9608;49.288;8.130;2022-09-27T16:19:09;10.40;99.90
18950;DHT22;9608;49.288;8.130;2022-09-27T16:21:35;10.20;99.90
18950;DHT22;9608;49.288;8.130;2022-09-27T16:24:03;10.20;99.90
18950;DHT22;9608;49.288;8.130;2022-09-27T16:26:32;10.20;99.90
18950;DHT22;9608;49.288;8.130;2022-09-27T16:28:59;10.30;99.90
18950;DHT22;9608;49.288;8.130;2022-09-27T16:31:25;10.30;99.90
18950;DHT22;9608;49.288;8.130;2022-09-27T16:33:52;10.40;99.90
18950;DHT22;9608;49.288;8.130;2022-09-27T16:36:19;10.30;99.90
18950;DHT22;9608;49.288;8.130;2022-09-27T16:38:49;10.30;99.90
18950;DHT22;9608;49.288;8.130;2022-09-27T16:41:16;10.40;99.90
18950;DHT22;9608;49.288;8.130;2022-09-27T16:43:44;10.30;99.90
18950;DHT22;9608;49.288;8.130;2022-09-27T16:46:12;10.30;99.90
18950;DHT22;9608;49.288;8.130;2022-09-27T16:48:40;10.20;99.90
18950;DHT22;9608;49.288;8.130;2022-09-27T16:51:11;10.10;99.90
18950;DHT22;9608;49.288;8.130;2022-09-27T16:53:56;10.10;99.90
18950;DHT22;9608;49.288;8.130;2022-09-27T16:56:23;10.00;99.90
18950;DHT22;9608;49.288;8.130;2022-09-27T16:58:51;9.90;99.90
18950;DHT22;9608;49.288;8.130;2022-09-27T17:01:18;10.00;99.90
18950;DHT22;9608;49.288;8.130;2022-09-27T17:03:48;10.00;99.90
18950;DHT22;9608;49.288;8.130;2022-09-27T17:06:15;9.90;99.90
18950;DHT22;9608;49.288;8.130;2022-09-27T17:08:42;9.80;99.90
18950;DHT22;9608;49.288;8.130;2022-09-27T17:11:11;9.80;99.90
18950;DHT22;9608;49.288;8.130;2022-09-27T17:13:39;9.80;99.90
18950;DHT22;9608;49.288;8.130;2022-09-27T17:16:07;9.80;99.90
18950;DHT22;9608;49.288;8.130;2022-09-27T17:18:35;9.60;99.90
18950;DHT22;9608;49.288;8.130;2022-09-27T17:21:03;9.50;99.90